sensor_id;sensor_type;location;lat;lon;timestamp;P1;durP1;ratioP1;P2;durP2;ratioP2
21438;SDS011;10880;50.302;18.736;2024-02-23T00:01:44;3.70;;;2.70;;
21438;SDS011;10880;50.302;18.736;2024-02-23T00:04:10;3.93;;;3.17;;
21438;SDS011;10880;50.302;18.736;2024-02-23T00:06:37;3.07;;;2.30;;
21438;SDS011;10880;50.302;18.736;2024-02-23T00:09:03;4.30;;;2.90;;
21438;SDS011;10880;50.302;18.736;2024-02-23T00:11:30;4.17;;;2.67;;
21438;SDS011;10880;50.302;18.736;2024-02-23T00:13:59;4.17;;;3.17;;
21438;SDS011;10880;50.302;18.736;2024-02-23T00:16:25;4.07;;;3.30;;
21438;SDS011;10880;50.302;18.736;2024-02-23T00:18:55;5.77;;;3.63;;
21438;SDS011;10880;50.302;18.736;2024-02-23T00:21:21;4.30;;;2.90;;
21438;SDS011;10880;50.302;18.736;2024-02-23T00:23:47;3.83;;;3.13;;
21438;SDS011;10880;50.302;18.736;2024-02-23T00:26:14;3.70;;;3.00;;
21438;SDS011;10880;50.302;18.736;2024-02-23T00:28:40;3.77;;;2.83;;
21438;SDS011;10880;50.302;18.736;2024-02-23T00:31:06;3.40;;;2.57;;
21438;SDS011;10880;50.302;18.736;2024-02-23T00:33:33;3.93;;;2.70;;
21438;SDS011;10880;50.302;18.736;2024-02-23T00:36:02;3.80;;;2.67;;
21438;SDS011;10880;50.302;18.736;2024-02-23T00:38:29;2.90;;;2.37;;
21438;SDS011;10880;50.302;18.736;2024-02-23T00:40:55;3.03;;;2.57;;
21438;SDS011;10880;50.302;18.736;2024-02-23T00:43:22;2.80;;;2.53;;
21438;SDS011;10880;50.302;18.736;2024-02-23T00:45:49;3.23;;;2.60;;
21438;SDS011;10880;50.302;18.736;2024-02-23T00:48:15;4.17;;;2.63;;
21438;SDS011;10880;50.302;18.736;2024-02-23T00:50:42;3.37;;;2.73;;
21438;SDS011;10880;50.302;18.736;2024-02-23T00:53:08;2.97;;;2.50;;
21438;SDS011;10880;50.302;18.736;2024-02-23T00:55:35;3.97;;;2.70;;
21438;SDS011;10880;50.302;18.736;2024-02-23T00:58:01;2.73;;;2.40;;
21438;SDS011;10880;50.302;18.736;2024-02-23T01:00:29;2.97;;;2.47;;
21438;SDS011;10880;50.302;18.736;2024-02-23T01:02:55;3.37;;;2.60;;
21438;SDS011;10880;50.302;18.736;2024-02-23T01:05:23;3.57;;;2.70;;
21438;SDS011;10880;50.302;18.736;2024-02-23T01:07:49;3.87;;;2.87;;
21438;SDS011;10880;50.302;18.736;2024-02-23T01:10:16;3.43;;;2.70;;
21438;SDS011;10880;50.302;18.736;2024-02-23T01:12:42;3.83;;;2.90;;
21438;SDS011;10880;50.302;18.736;2024-02-23T01:15:09;4.17;;;3.47;;
21438;SDS011;10880;50.302;18.736;2024-02-23T01:17:35;4.73;;;3.40;;
21438;SDS011;10880;50.302;18.736;2024-02-23T01:20:01;5.57;;;3.20;;
21438;SDS011;10880;50.302;18.736;2024-02-23T01:22:28;3.80;;;2.90;;
21438;SDS011;10880;50.302;18.736;2024-02-23T01:24:54;3.97;;;2.97;;
21438;SDS011;10880;50.302;18.736;2024-02-23T01:27:21;3.20;;;2.80;;
21438;SDS011;10880;50.302;18.736;2024-02-23T01:29:47;5.00;;;3.37;;
21438;SDS011;10880;50.302;18.736;2024-02-23T01:32:14;2.97;;;2.70;;
21438;SDS011;10880;50.302;18.736;2024-02-23T01:34:43;3.63;;;2.67;;
21438;SDS011;10880;50.302;18.736;2024-02-23T01:37:12;3.30;;;2.83;;
21438;SDS011;10880;50.302;18.736;2024-02-23T01:39:39;3.80;;;3.23;;
21438;SDS011;10880;50.302;18.736;2024-02-23T01:42:05;3.07;;;2.77;;
21438;SDS011;10880;50.302;18.736;2024-02-23T01:44:31;3.97;;;2.77;;
21438;SDS011;10880;50.302;18.736;2024-02-23T01:46:58;3.30;;;3.00;;
21438;SDS011;10880;50.302;18.736;2024-02-23T01:49:27;2.60;;;2.40;;
21438;SDS011;10880;50.302;18.736;2024-02-23T01:51:57;2.63;;;2.33;;
21438;SDS011;10880;50.302;18.736;2024-02-23T01:54:24;2.63;;;2.43;;
21438;SDS011;10880;50.302;18.736;2024-02-23T01:56:51;2.83;;;2.53;;
21438;SDS011;10880;50.302;18.736;2024-02-23T01:59:18;2.40;;;2.20;;
21438;SDS011;10880;50.302;18.736;2024-02-23T02:01:45;2.80;;;2.60;;
21438;SDS011;10880;50.302;18.736;2024-02-23T02:04:11;2.97;;;2.53;;
21438;SDS011;10880;50.302;18.736;2024-02-23T02:06:38;2.70;;;2.50;;
21438;SDS011;10880;50.302;18.736;2024-02-23T02:09:05;2.33;;;2.10;;
21438;SDS011;10880;50.302;18.736;2024-02-23T02:11:31;2.73;;;2.30;;
21438;SDS011;10880;50.302;18.736;2024-02-23T02:13:57;3.00;;;2.50;;
21438;SDS011;10880;50.302;18.736;2024-02-23T02:16:24;3.20;;;2.60;;
21438;SDS011;10880;50.302;18.736;2024-02-23T02:18:50;3.90;;;2.90;;
21438;SDS011;10880;50.302;18.736;2024-02-23T02:21:17;2.53;;;2.33;;
21438;SDS011;10880;50.302;18.736;2024-02-23T02:23:44;2.33;;;2.07;;
21438;SDS011;10880;50.302;18.736;2024-02-23T02:26:10;2.50;;;2.30;;
21438;SDS011;10880;50.302;18.736;2024-02-23T02:28:37;2.40;;;2.20;;
21438;SDS011;10880;50.302;18.736;2024-02-23T02:31:03;2.40;;;2.00;;
21438;SDS011;10880;50.302;18.736;2024-02-23T02:33:30;1.97;;;1.87;;
21438;SDS011;10880;50.302;18.736;2024-02-23T02:35:56;2.10;;;1.97;;
21438;SDS011;10880;50.302;18.736;2024-02-23T02:38:22;2.30;;;2.10;;
21438;SDS011;10880;50.302;18.736;2024-02-23T02:40:49;2.20;;;2.00;;
21438;SDS011;10880;50.302;18.736;2024-02-23T02:43:15;2.53;;;2.07;;
21438;SDS011;10880;50.302;18.736;2024-02-23T02:45:42;2.10;;;2.00;;
21438;SDS011;10880;50.302;18.736;2024-02-23T02:48:09;2.30;;;2.10;;
21438;SDS011;10880;50.302;18.736;2024-02-23T02:50:35;2.10;;;1.90;;
21438;SDS011;10880;50.302;18.736;2024-02-23T02:53:02;2.13;;;1.80;;
21438;SDS011;10880;50.302;18.736;2024-02-23T02:55:29;2.33;;;2.13;;
21438;SDS011;10880;50.302;18.736;2024-02-23T02:57:55;2.30;;;2.10;;
21438;SDS011;10880;50.302;18.736;2024-02-23T03:00:21;2.33;;;2.13;;
21438;SDS011;10880;50.302;18.736;2024-02-23T03:02:48;2.00;;;1.83;;
21438;SDS011;10880;50.302;18.736;2024-02-23T03:05:14;2.03;;;1.93;;
21438;SDS011;10880;50.302;18.736;2024-02-23T03:07:41;2.50;;;2.20;;
21438;SDS011;10880;50.302;18.736;2024-02-23T03:10:07;2.83;;;2.60;;
21438;SDS011;10880;50.302;18.736;2024-02-23T03:12:33;2.80;;;2.40;;
21438;SDS011;10880;50.302;18.736;2024-02-23T03:15:00;2.40;;;2.20;;
21438;SDS011;10880;50.302;18.736;2024-02-23T03:17:28;2.33;;;2.13;;
21438;SDS011;10880;50.302;18.736;2024-02-23T03:19:55;3.00;;;2.40;;
21438;SDS011;10880;50.302;18.736;2024-02-23T03:22:21;2.53;;;2.33;;
21438;SDS011;10880;50.302;18.736;2024-02-23T03:24:47;2.60;;;2.40;;
21438;SDS011;10880;50.302;18.736;2024-02-23T03:27:14;2.40;;;2.20;;
21438;SDS011;10880;50.302;18.736;2024-02-23T03:29:40;3.63;;;2.67;;
21438;SDS011;10880;50.302;18.736;2024-02-23T03:32:07;2.50;;;2.30;;
21438;SDS011;10880;50.302;18.736;2024-02-23T03:34:33;2.47;;;2.27;;
21438;SDS011;10880;50.302;18.736;2024-02-23T03:37:00;3.40;;;2.90;;
21438;SDS011;10880;50.302;18.736;2024-02-23T03:39:28;3.27;;;2.97;;
21438;SDS011;10880;50.302;18.736;2024-02-23T03:41:54;2.70;;;2.50;;
21438;SDS011;10880;50.302;18.736;2024-02-23T03:44:21;2.90;;;2.60;;
21438;SDS011;10880;50.302;18.736;2024-02-23T03:46:47;3.33;;;2.60;;
21438;SDS011;10880;50.302;18.736;2024-02-23T03:49:14;4.37;;;3.33;;
21438;SDS011;10880;50.302;18.736;2024-02-23T03:51:40;3.00;;;2.70;;
21438;SDS011;10880;50.302;18.736;2024-02-23T03:54:07;3.67;;;3.10;;
21438;SDS011;10880;50.302;18.736;2024-02-23T03:56:39;3.57;;;2.93;;
21438;SDS011;10880;50.302;18.736;2024-02-23T03:59:07;5.80;;;3.60;;
21438;SDS011;10880;50.302;18.736;2024-02-23T04:01:37;4.97;;;3.60;;
21438;SDS011;10880;50.302;18.736;2024-02-23T04:04:05;4.47;;;3.33;;
21438;SDS011;10880;50.302;18.736;2024-02-23T04:06:31;3.40;;;3.00;;
21438;SDS011;10880;50.302;18.736;2024-02-23T04:09:02;3.60;;;3.20;;
21438;SDS011;10880;50.302;18.736;2024-02-23T04:11:35;4.13;;;3.33;;
21438;SDS011;10880;50.302;18.736;2024-02-23T04:14:01;6.23;;;3.87;;
21438;SDS011;10880;50.302;18.736;2024-02-23T04:16:31;3.63;;;3.13;;
21438;SDS011;10880;50.302;18.736;2024-02-23T04:18:57;3.90;;;3.30;;
21438;SDS011;10880;50.302;18.736;2024-02-23T04:21:25;4.73;;;3.33;;
21438;SDS011;10880;50.302;18.736;2024-02-23T04:23:52;3.60;;;3.00;;
21438;SDS011;10880;50.302;18.736;2024-02-23T04:26:18;3.70;;;3.07;;
21438;SDS011;10880;50.302;18.736;2024-02-23T04:28:44;3.20;;;2.70;;
21438;SDS011;10880;50.302;18.736;2024-02-23T04:31:11;4.30;;;3.27;;
21438;SDS011;10880;50.302;18.736;2024-02-23T04:33:38;5.00;;;3.40;;
21438;SDS011;10880;50.302;18.736;2024-02-23T04:36:04;3.93;;;3.23;;
21438;SDS011;10880;50.302;18.736;2024-02-23T04:38:32;4.07;;;3.30;;
21438;SDS011;10880;50.302;18.736;2024-02-23T04:41:02;5.10;;;3.70;;
21438;SDS011;10880;50.302;18.736;2024-02-23T04:43:31;4.70;;;3.50;;
21438;SDS011;10880;50.302;18.736;2024-02-23T04:45:58;5.10;;;3.30;;
21438;SDS011;10880;50.302;18.736;2024-02-23T04:48:24;4.47;;;3.20;;
21438;SDS011;10880;50.302;18.736;2024-02-23T04:50:51;4.20;;;2.80;;
21438;SDS011;10880;50.302;18.736;2024-02-23T04:53:18;3.53;;;2.80;;
21438;SDS011;10880;50.302;18.736;2024-02-23T04:55:45;3.63;;;2.87;;
21438;SDS011;10880;50.302;18.736;2024-02-23T04:58:11;3.30;;;2.77;;
21438;SDS011;10880;50.302;18.736;2024-02-23T05:00:38;4.37;;;3.30;;
21438;SDS011;10880;50.302;18.736;2024-02-23T05:03:07;4.63;;;3.20;;
21438;SDS011;10880;50.302;18.736;2024-02-23T05:05:35;4.83;;;3.40;;
21438;SDS011;10880;50.302;18.736;2024-02-23T05:08:01;3.93;;;2.93;;
21438;SDS011;10880;50.302;18.736;2024-02-23T05:10:28;5.27;;;3.40;;
21438;SDS011;10880;50.302;18.736;2024-02-23T05:12:54;5.47;;;3.20;;
21438;SDS011;10880;50.302;18.736;2024-02-23T05:15:21;3.13;;;2.47;;
21438;SDS011;10880;50.302;18.736;2024-02-23T05:17:50;3.97;;;3.30;;
21438;SDS011;10880;50.302;18.736;2024-02-23T05:20:16;4.77;;;3.60;;
21438;SDS011;10880;50.302;18.736;2024-02-23T05:22:51;6.20;;;4.10;;
21438;SDS011;10880;50.302;18.736;2024-02-23T05:25:18;4.30;;;3.50;;
21438;SDS011;10880;50.302;18.736;2024-02-23T05:27:47;5.07;;;3.77;;
21438;SDS011;10880;50.302;18.736;2024-02-23T05:30:18;4.70;;;3.40;;
21438;SDS011;10880;50.302;18.736;2024-02-23T05:32:44;5.00;;;3.20;;
21438;SDS011;10880;50.302;18.736;2024-02-23T05:35:11;3.77;;;3.00;;
21438;SDS011;10880;50.302;18.736;2024-02-23T05:37:37;3.07;;;2.60;;
21438;SDS011;10880;50.302;18.736;2024-02-23T05:40:04;2.90;;;2.60;;
21438;SDS011;10880;50.302;18.736;2024-02-23T05:42:36;5.07;;;3.50;;
21438;SDS011;10880;50.302;18.736;2024-02-23T05:45:07;3.63;;;3.03;;
21438;SDS011;10880;50.302;18.736;2024-02-23T05:47:39;3.43;;;3.00;;
21438;SDS011;10880;50.302;18.736;2024-02-23T05:50:09;4.53;;;3.40;;
21438;SDS011;10880;50.302;18.736;2024-02-23T05:52:36;7.37;;;4.40;;
21438;SDS011;10880;50.302;18.736;2024-02-23T05:55:03;6.27;;;4.53;;
21438;SDS011;10880;50.302;18.736;2024-02-23T05:57:30;4.17;;;3.50;;
21438;SDS011;10880;50.302;18.736;2024-02-23T05:59:59;5.63;;;3.93;;
21438;SDS011;10880;50.302;18.736;2024-02-23T06:02:37;6.20;;;4.03;;
21438;SDS011;10880;50.302;18.736;2024-02-23T06:05:07;5.20;;;3.90;;
21438;SDS011;10880;50.302;18.736;2024-02-23T06:07:36;3.93;;;3.40;;
21438;SDS011;10880;50.302;18.736;2024-02-23T06:10:02;3.63;;;3.00;;
21438;SDS011;10880;50.302;18.736;2024-02-23T06:12:29;3.03;;;2.70;;
21438;SDS011;10880;50.302;18.736;2024-02-23T06:14:57;2.97;;;2.67;;
21438;SDS011;10880;50.302;18.736;2024-02-23T06:17:24;2.80;;;2.60;;
21438;SDS011;10880;50.302;18.736;2024-02-23T06:19:53;3.13;;;2.70;;
21438;SDS011;10880;50.302;18.736;2024-02-23T06:22:23;3.00;;;2.60;;
21438;SDS011;10880;50.302;18.736;2024-02-23T06:24:51;2.87;;;2.57;;
21438;SDS011;10880;50.302;18.736;2024-02-23T06:27:20;3.30;;;2.67;;
21438;SDS011;10880;50.302;18.736;2024-02-23T06:29:48;4.10;;;3.07;;
21438;SDS011;10880;50.302;18.736;2024-02-23T06:32:14;2.97;;;2.77;;
21438;SDS011;10880;50.302;18.736;2024-02-23T06:34:41;3.10;;;2.80;;
21438;SDS011;10880;50.302;18.736;2024-02-23T06:37:08;3.80;;;3.13;;
21438;SDS011;10880;50.302;18.736;2024-02-23T06:39:35;4.70;;;3.30;;
21438;SDS011;10880;50.302;18.736;2024-02-23T06:42:01;4.53;;;3.60;;
21438;SDS011;10880;50.302;18.736;2024-02-23T06:44:30;5.17;;;3.60;;
21438;SDS011;10880;50.302;18.736;2024-02-23T06:46:58;6.30;;;4.27;;
21438;SDS011;10880;50.302;18.736;2024-02-23T06:49:24;3.90;;;3.37;;
21438;SDS011;10880;50.302;18.736;2024-02-23T06:51:50;6.17;;;4.13;;
21438;SDS011;10880;50.302;18.736;2024-02-23T06:54:17;5.33;;;3.90;;
21438;SDS011;10880;50.302;18.736;2024-02-23T06:56:45;6.17;;;3.60;;
21438;SDS011;10880;50.302;18.736;2024-02-23T06:59:12;3.57;;;3.10;;
21438;SDS011;10880;50.302;18.736;2024-02-23T07:01:49;3.73;;;3.30;;
21438;SDS011;10880;50.302;18.736;2024-02-23T07:04:16;3.60;;;3.30;;
21438;SDS011;10880;50.302;18.736;2024-02-23T07:06:42;4.00;;;3.00;;
21438;SDS011;10880;50.302;18.736;2024-02-23T07:09:09;2.67;;;2.40;;
21438;SDS011;10880;50.302;18.736;2024-02-23T07:11:37;3.37;;;2.83;;
21438;SDS011;10880;50.302;18.736;2024-02-23T07:14:04;3.73;;;3.00;;
21438;SDS011;10880;50.302;18.736;2024-02-23T07:16:31;5.17;;;3.80;;
21438;SDS011;10880;50.302;18.736;2024-02-23T07:19:03;4.37;;;3.70;;
21438;SDS011;10880;50.302;18.736;2024-02-23T07:21:29;3.90;;;3.10;;
21438;SDS011;10880;50.302;18.736;2024-02-23T07:23:55;4.90;;;3.50;;
21438;SDS011;10880;50.302;18.736;2024-02-23T07:26:22;4.73;;;3.30;;
21438;SDS011;10880;50.302;18.736;2024-02-23T07:28:48;3.60;;;3.27;;
21438;SDS011;10880;50.302;18.736;2024-02-23T07:31:15;3.97;;;3.20;;
21438;SDS011;10880;50.302;18.736;2024-02-23T07:33:42;3.70;;;3.27;;
21438;SDS011;10880;50.302;18.736;2024-02-23T07:36:13;4.70;;;3.47;;
21438;SDS011;10880;50.302;18.736;2024-02-23T07:38:43;6.00;;;4.23;;
21438;SDS011;10880;50.302;18.736;2024-02-23T07:41:14;6.60;;;4.17;;
21438;SDS011;10880;50.302;18.736;2024-02-23T07:43:41;5.03;;;3.70;;
21438;SDS011;10880;50.302;18.736;2024-02-23T07:46:07;3.50;;;3.00;;
21438;SDS011;10880;50.302;18.736;2024-02-23T07:48:35;3.57;;;2.90;;
21438;SDS011;10880;50.302;18.736;2024-02-23T07:51:05;3.63;;;3.13;;
21438;SDS011;10880;50.302;18.736;2024-02-23T07:53:31;5.83;;;4.30;;
21438;SDS011;10880;50.302;18.736;2024-02-23T07:55:59;4.70;;;3.23;;
21438;SDS011;10880;50.302;18.736;2024-02-23T07:58:28;4.23;;;3.13;;
21438;SDS011;10880;50.302;18.736;2024-02-23T08:00:57;5.17;;;3.90;;
21438;SDS011;10880;50.302;18.736;2024-02-23T08:03:23;4.47;;;3.40;;
21438;SDS011;10880;50.302;18.736;2024-02-23T08:05:51;5.50;;;4.03;;
21438;SDS011;10880;50.302;18.736;2024-02-23T08:08:18;5.37;;;3.73;;
21438;SDS011;10880;50.302;18.736;2024-02-23T08:10:45;4.23;;;3.43;;
21438;SDS011;10880;50.302;18.736;2024-02-23T08:13:11;4.90;;;3.40;;
21438;SDS011;10880;50.302;18.736;2024-02-23T08:15:37;6.00;;;4.00;;
21438;SDS011;10880;50.302;18.736;2024-02-23T08:18:04;4.93;;;3.27;;
21438;SDS011;10880;50.302;18.736;2024-02-23T08:20:31;3.80;;;3.17;;
21438;SDS011;10880;50.302;18.736;2024-02-23T08:22:57;4.80;;;3.07;;
21438;SDS011;10880;50.302;18.736;2024-02-23T08:25:23;4.87;;;3.53;;
21438;SDS011;10880;50.302;18.736;2024-02-23T08:27:50;4.50;;;3.10;;
21438;SDS011;10880;50.302;18.736;2024-02-23T08:30:19;3.40;;;3.10;;
21438;SDS011;10880;50.302;18.736;2024-02-23T08:32:46;3.90;;;3.10;;
21438;SDS011;10880;50.302;18.736;2024-02-23T08:35:13;4.03;;;3.13;;
21438;SDS011;10880;50.302;18.736;2024-02-23T08:37:41;6.60;;;4.63;;
21438;SDS011;10880;50.302;18.736;2024-02-23T08:40:09;6.67;;;3.90;;
21438;SDS011;10880;50.302;18.736;2024-02-23T08:42:36;7.07;;;4.90;;
21438;SDS011;10880;50.302;18.736;2024-02-23T08:45:03;9.07;;;5.37;;
21438;SDS011;10880;50.302;18.736;2024-02-23T08:47:30;5.97;;;4.37;;
21438;SDS011;10880;50.302;18.736;2024-02-23T08:50:04;7.87;;;4.77;;
21438;SDS011;10880;50.302;18.736;2024-02-23T08:52:31;5.80;;;4.07;;
21438;SDS011;10880;50.302;18.736;2024-02-23T08:54:58;6.37;;;4.33;;
21438;SDS011;10880;50.302;18.736;2024-02-23T08:57:30;6.00;;;3.90;;
21438;SDS011;10880;50.302;18.736;2024-02-23T08:59:56;3.60;;;2.90;;
21438;SDS011;10880;50.302;18.736;2024-02-23T09:02:28;5.30;;;4.23;;
21438;SDS011;10880;50.302;18.736;2024-02-23T09:04:57;5.30;;;4.00;;
21438;SDS011;10880;50.302;18.736;2024-02-23T09:07:23;4.70;;;3.57;;
21438;SDS011;10880;50.302;18.736;2024-02-23T09:09:50;7.87;;;4.37;;
21438;SDS011;10880;50.302;18.736;2024-02-23T09:12:16;6.33;;;4.40;;
21438;SDS011;10880;50.302;18.736;2024-02-23T09:14:43;6.73;;;5.07;;
21438;SDS011;10880;50.302;18.736;2024-02-23T09:17:11;7.83;;;5.17;;
21438;SDS011;10880;50.302;18.736;2024-02-23T09:19:38;6.13;;;4.70;;
21438;SDS011;10880;50.302;18.736;2024-02-23T09:22:07;5.03;;;3.90;;
21438;SDS011;10880;50.302;18.736;2024-02-23T09:24:33;5.97;;;3.80;;
21438;SDS011;10880;50.302;18.736;2024-02-23T09:27:01;5.30;;;3.70;;
21438;SDS011;10880;50.302;18.736;2024-02-23T09:29:28;4.80;;;4.00;;
21438;SDS011;10880;50.302;18.736;2024-02-23T09:31:55;4.27;;;3.57;;
21438;SDS011;10880;50.302;18.736;2024-02-23T09:34:22;6.37;;;3.93;;
21438;SDS011;10880;50.302;18.736;2024-02-23T09:36:50;5.50;;;4.13;;
21438;SDS011;10880;50.302;18.736;2024-02-23T09:39:17;6.57;;;4.20;;
21438;SDS011;10880;50.302;18.736;2024-02-23T09:41:44;12.40;;;7.67;;
21438;SDS011;10880;50.302;18.736;2024-02-23T09:44:11;13.50;;;8.33;;
21438;SDS011;10880;50.302;18.736;2024-02-23T09:46:39;10.20;;;6.53;;
21438;SDS011;10880;50.302;18.736;2024-02-23T09:49:10;9.23;;;5.97;;
21438;SDS011;10880;50.302;18.736;2024-02-23T09:51:39;6.20;;;4.67;;
21438;SDS011;10880;50.302;18.736;2024-02-23T09:54:07;6.63;;;4.80;;
21438;SDS011;10880;50.302;18.736;2024-02-23T09:56:33;6.97;;;4.73;;
21438;SDS011;10880;50.302;18.736;2024-02-23T09:59:06;8.20;;;4.77;;
21438;SDS011;10880;50.302;18.736;2024-02-23T10:01:33;6.00;;;4.23;;
21438;SDS011;10880;50.302;18.736;2024-02-23T10:04:03;6.73;;;4.03;;
21438;SDS011;10880;50.302;18.736;2024-02-23T10:06:34;6.13;;;4.13;;
21438;SDS011;10880;50.302;18.736;2024-02-23T10:09:01;6.50;;;4.50;;
21438;SDS011;10880;50.302;18.736;2024-02-23T10:11:30;7.93;;;5.57;;
21438;SDS011;10880;50.302;18.736;2024-02-23T10:13:56;8.20;;;5.80;;
21438;SDS011;10880;50.302;18.736;2024-02-23T10:16:23;6.17;;;4.53;;
21438;SDS011;10880;50.302;18.736;2024-02-23T10:18:51;5.43;;;3.80;;
21438;SDS011;10880;50.302;18.736;2024-02-23T10:21:17;4.67;;;3.97;;
21438;SDS011;10880;50.302;18.736;2024-02-23T10:23:47;4.97;;;3.70;;
21438;SDS011;10880;50.302;18.736;2024-02-23T10:26:20;3.63;;;3.20;;
21438;SDS011;10880;50.302;18.736;2024-02-23T10:28:48;5.20;;;3.77;;
21438;SDS011;10880;50.302;18.736;2024-02-23T10:31:16;25.70;;;13.93;;
21438;SDS011;10880;50.302;18.736;2024-02-23T10:33:50;18.13;;;10.23;;
21438;SDS011;10880;50.302;18.736;2024-02-23T10:36:18;12.67;;;7.80;;
21438;SDS011;10880;50.302;18.736;2024-02-23T10:38:51;8.57;;;5.27;;
21438;SDS011;10880;50.302;18.736;2024-02-23T10:41:24;6.07;;;4.00;;
21438;SDS011;10880;50.302;18.736;2024-02-23T10:43:51;4.53;;;3.60;;
21438;SDS011;10880;50.302;18.736;2024-02-23T10:46:18;4.13;;;3.30;;
21438;SDS011;10880;50.302;18.736;2024-02-23T10:48:51;5.50;;;3.53;;
21438;SDS011;10880;50.302;18.736;2024-02-23T10:51:27;5.43;;;3.70;;
21438;SDS011;10880;50.302;18.736;2024-02-23T10:53:56;6.50;;;3.70;;
21438;SDS011;10880;50.302;18.736;2024-02-23T10:56:23;4.27;;;3.30;;
21438;SDS011;10880;50.302;18.736;2024-02-23T10:58:51;5.40;;;4.00;;
21438;SDS011;10880;50.302;18.736;2024-02-23T11:01:20;6.73;;;5.23;;
21438;SDS011;10880;50.302;18.736;2024-02-23T11:03:48;5.27;;;3.83;;
21438;SDS011;10880;50.302;18.736;2024-02-23T11:06:19;5.20;;;3.93;;
21438;SDS011;10880;50.302;18.736;2024-02-23T11:08:53;6.00;;;3.87;;
21438;SDS011;10880;50.302;18.736;2024-02-23T11:11:19;5.80;;;3.53;;
21438;SDS011;10880;50.302;18.736;2024-02-23T11:13:46;4.50;;;3.40;;
21438;SDS011;10880;50.302;18.736;2024-02-23T11:16:22;4.87;;;3.90;;
21438;SDS011;10880;50.302;18.736;2024-02-23T11:19:04;5.47;;;3.80;;
21438;SDS011;10880;50.302;18.736;2024-02-23T11:21:34;5.63;;;3.60;;
21438;SDS011;10880;50.302;18.736;2024-02-23T11:24:06;4.93;;;3.90;;
21438;SDS011;10880;50.302;18.736;2024-02-23T11:26:35;4.30;;;3.30;;
21438;SDS011;10880;50.302;18.736;2024-02-23T11:29:10;4.27;;;3.20;;
21438;SDS011;10880;50.302;18.736;2024-02-23T11:31:44;3.30;;;3.00;;
21438;SDS011;10880;50.302;18.736;2024-02-23T11:34:21;3.73;;;3.00;;
21438;SDS011;10880;50.302;18.736;2024-02-23T11:36:52;4.07;;;2.93;;
21438;SDS011;10880;50.302;18.736;2024-02-23T11:39:19;3.77;;;3.10;;
21438;SDS011;10880;50.302;18.736;2024-02-23T11:41:50;3.53;;;2.80;;
21438;SDS011;10880;50.302;18.736;2024-02-23T11:44:19;4.63;;;2.93;;
21438;SDS011;10880;50.302;18.736;2024-02-23T11:46:47;3.33;;;2.87;;
21438;SDS011;10880;50.302;18.736;2024-02-23T11:49:14;4.17;;;3.40;;
21438;SDS011;10880;50.302;18.736;2024-02-23T11:51:42;4.73;;;3.47;;
21438;SDS011;10880;50.302;18.736;2024-02-23T11:54:08;3.60;;;3.20;;
21438;SDS011;10880;50.302;18.736;2024-02-23T11:56:35;5.03;;;3.37;;
21438;SDS011;10880;50.302;18.736;2024-02-23T11:59:02;5.47;;;3.57;;
21438;SDS011;10880;50.302;18.736;2024-02-23T12:01:29;4.20;;;3.30;;
21438;SDS011;10880;50.302;18.736;2024-02-23T12:03:56;4.17;;;3.40;;
21438;SDS011;10880;50.302;18.736;2024-02-23T12:06:23;5.93;;;3.90;;
21438;SDS011;10880;50.302;18.736;2024-02-23T12:08:50;3.87;;;3.23;;
21438;SDS011;10880;50.302;18.736;2024-02-23T12:11:18;4.70;;;3.13;;
21438;SDS011;10880;50.302;18.736;2024-02-23T12:13:46;4.43;;;3.40;;
21438;SDS011;10880;50.302;18.736;2024-02-23T12:16:13;6.40;;;4.07;;
21438;SDS011;10880;50.302;18.736;2024-02-23T12:18:43;6.47;;;4.40;;
21438;SDS011;10880;50.302;18.736;2024-02-23T12:21:09;5.57;;;3.90;;
21438;SDS011;10880;50.302;18.736;2024-02-23T12:23:46;5.23;;;3.97;;
21438;SDS011;10880;50.302;18.736;2024-02-23T12:26:17;6.27;;;3.90;;
21438;SDS011;10880;50.302;18.736;2024-02-23T12:28:45;4.93;;;3.53;;
21438;SDS011;10880;50.302;18.736;2024-02-23T12:31:12;4.60;;;3.20;;
21438;SDS011;10880;50.302;18.736;2024-02-23T12:33:39;5.20;;;3.50;;
21438;SDS011;10880;50.302;18.736;2024-02-23T12:36:06;4.13;;;3.73;;
21438;SDS011;10880;50.302;18.736;2024-02-23T12:38:33;4.00;;;3.40;;
21438;SDS011;10880;50.302;18.736;2024-02-23T12:41:01;4.30;;;3.50;;
21438;SDS011;10880;50.302;18.736;2024-02-23T12:43:28;5.87;;;4.20;;
21438;SDS011;10880;50.302;18.736;2024-02-23T12:45:56;4.37;;;3.13;;
21438;SDS011;10880;50.302;18.736;2024-02-23T12:48:27;4.20;;;3.33;;
21438;SDS011;10880;50.302;18.736;2024-02-23T12:50:53;5.07;;;3.70;;
21438;SDS011;10880;50.302;18.736;2024-02-23T12:53:30;3.83;;;3.13;;
21438;SDS011;10880;50.302;18.736;2024-02-23T12:56:03;3.20;;;2.90;;
21438;SDS011;10880;50.302;18.736;2024-02-23T12:58:33;3.73;;;3.17;;
21438;SDS011;10880;50.302;18.736;2024-02-23T13:01:04;3.17;;;2.87;;
21438;SDS011;10880;50.302;18.736;2024-02-23T13:03:34;3.30;;;2.90;;
21438;SDS011;10880;50.302;18.736;2024-02-23T13:06:02;4.90;;;3.20;;
21438;SDS011;10880;50.302;18.736;2024-02-23T13:08:30;3.77;;;3.07;;
21438;SDS011;10880;50.302;18.736;2024-02-23T13:11:07;2.80;;;2.60;;
21438;SDS011;10880;50.302;18.736;2024-02-23T13:13:35;3.63;;;2.73;;
21438;SDS011;10880;50.302;18.736;2024-02-23T13:16:02;2.90;;;2.60;;
21438;SDS011;10880;50.302;18.736;2024-02-23T13:18:30;3.77;;;3.10;;
21438;SDS011;10880;50.302;18.736;2024-02-23T13:20:57;4.07;;;3.03;;
21438;SDS011;10880;50.302;18.736;2024-02-23T13:23:24;2.97;;;2.60;;
21438;SDS011;10880;50.302;18.736;2024-02-23T13:25:50;4.57;;;2.87;;
21438;SDS011;10880;50.302;18.736;2024-02-23T13:28:17;3.03;;;2.73;;
21438;SDS011;10880;50.302;18.736;2024-02-23T13:30:43;2.70;;;2.50;;
21438;SDS011;10880;50.302;18.736;2024-02-23T13:33:10;3.73;;;2.43;;
21438;SDS011;10880;50.302;18.736;2024-02-23T13:35:37;3.07;;;2.43;;
21438;SDS011;10880;50.302;18.736;2024-02-23T13:38:05;4.23;;;3.00;;
21438;SDS011;10880;50.302;18.736;2024-02-23T13:40:33;3.43;;;3.13;;
21438;SDS011;10880;50.302;18.736;2024-02-23T13:43:00;4.03;;;3.10;;
21438;SDS011;10880;50.302;18.736;2024-02-23T13:45:26;3.23;;;2.70;;
21438;SDS011;10880;50.302;18.736;2024-02-23T13:50:34;3.77;;;2.53;;
21438;SDS011;10880;50.302;18.736;2024-02-23T13:53:01;3.93;;;2.87;;
21438;SDS011;10880;50.302;18.736;2024-02-23T13:55:28;4.97;;;3.10;;
21438;SDS011;10880;50.302;18.736;2024-02-23T13:57:55;3.63;;;3.10;;
21438;SDS011;10880;50.302;18.736;2024-02-23T14:00:24;4.63;;;3.07;;
21438;SDS011;10880;50.302;18.736;2024-02-23T14:02:50;3.10;;;2.80;;
21438;SDS011;10880;50.302;18.736;2024-02-23T14:05:17;3.27;;;2.97;;
21438;SDS011;10880;50.302;18.736;2024-02-23T14:08:12;3.50;;;3.07;;
21438;SDS011;10880;50.302;18.736;2024-02-23T14:10:40;3.47;;;2.90;;
21438;SDS011;10880;50.302;18.736;2024-02-23T14:13:08;3.87;;;2.83;;
21438;SDS011;10880;50.302;18.736;2024-02-23T14:15:35;2.93;;;2.60;;
21438;SDS011;10880;50.302;18.736;2024-02-23T14:18:02;3.57;;;2.97;;
21438;SDS011;10880;50.302;18.736;2024-02-23T14:20:29;4.13;;;2.93;;
21438;SDS011;10880;50.302;18.736;2024-02-23T14:22:55;4.03;;;2.90;;
21438;SDS011;10880;50.302;18.736;2024-02-23T14:25:22;3.07;;;2.77;;
21438;SDS011;10880;50.302;18.736;2024-02-23T14:27:52;3.97;;;2.77;;
21438;SDS011;10880;50.302;18.736;2024-02-23T14:30:22;4.10;;;3.20;;
21438;SDS011;10880;50.302;18.736;2024-02-23T14:32:48;5.40;;;3.90;;
21438;SDS011;10880;50.302;18.736;2024-02-23T14:35:15;4.20;;;3.53;;
21438;SDS011;10880;50.302;18.736;2024-02-23T14:37:41;6.33;;;4.10;;
21438;SDS011;10880;50.302;18.736;2024-02-23T14:40:08;13.90;;;6.17;;